createdAt,value
2019-01-14T00:00:06.426Z,95189.97
2019-01-14T00:02:38.408Z,95181.20
2019-01-14T00:05:10.443Z,95187.20
2019-01-14T00:07:42.270Z,95183.63
2019-01-14T00:10:14.155Z,95174.64
2019-01-14T00:12:45.901Z,95183.94
2019-01-14T00:15:17.817Z,95190.77
2019-01-14T00:17:49.962Z,95189.25
2019-01-14T00:20:21.847Z,95204.58
2019-01-14T00:22:53.602Z,95206.33
2019-01-14T00:25:25.439Z,95212.03
2019-01-14T00:27:57.254Z,95216.38
2019-01-14T00:30:29.433Z,95231.22
2019-01-14T00:33:01.403Z,95236.53
2019-01-14T00:35:33.305Z,95247.95
2019-01-14T00:38:05.219Z,95253.73
2019-01-14T00:40:37.355Z,95264.76
2019-01-14T00:43:10.239Z,95269.35
2019-01-14T00:45:42.052Z,95270.47
2019-01-14T00:48:13.973Z,95280.39
2019-01-14T00:50:45.710Z,95284.82
2019-01-14T00:53:17.539Z,95288.82
2019-01-14T00:55:49.357Z,95290.13
2019-01-14T00:58:21.138Z,95301.83
2019-01-14T01:00:52.947Z,95304.27
2019-01-14T01:03:25.031Z,95303.28
2019-01-14T01:05:56.856Z,95309.00
2019-01-14T01:08:28.688Z,95292.87
2019-01-14T01:11:00.590Z,95303.47
2019-01-14T01:13:32.407Z,95300.17
2019-01-14T01:16:04.282Z,95294.70
2019-01-14T01:18:36.192Z,95305.40
2019-01-14T01:21:08.015Z,95304.16
2019-01-14T01:23:40.050Z,95300.86
2019-01-14T01:26:11.945Z,95303.94
2019-01-14T01:28:43.835Z,95301.19
2019-01-14T01:31:15.725Z,95312.91
2019-01-14T01:33:47.549Z,95308.94
2019-01-14T01:36:19.368Z,95309.23
2019-01-14T01:38:51.209Z,95317.91
2019-01-14T01:41:23.134Z,95316.76
2019-01-14T01:43:54.879Z,95320.60
2019-01-14T01:46:26.677Z,95328.17
2019-01-14T01:48:58.501Z,95332.72
2019-01-14T01:51:30.266Z,95333.20
2019-01-14T01:54:02.367Z,95341.73
2019-01-14T01:56:34.288Z,95337.77
2019-01-14T01:59:06.193Z,95336.41
2019-01-14T02:01:38.275Z,95343.74
2019-01-14T02:04:10.026Z,95341.19
2019-01-14T02:06:41.843Z,95347.64
2019-01-14T02:09:13.671Z,95340.32
2019-01-14T02:11:45.589Z,95341.48
2019-01-14T02:14:17.630Z,95346.83
2019-01-14T02:16:49.321Z,95357.72
2019-01-14T02:19:21.169Z,95354.77
2019-01-14T02:21:53.253Z,95355.94
2019-01-14T02:24:25.019Z,95360.17
2019-01-14T02:26:56.822Z,95367.00
2019-01-14T02:29:28.647Z,95372.97
2019-01-14T02:32:00.729Z,95376.92
2019-01-14T02:34:32.486Z,95389.77
2019-01-14T02:37:04.372Z,95400.65
2019-01-14T02:39:36.451Z,95404.96
2019-01-14T02:42:09.262Z,95404.61
2019-01-14T02:44:41.014Z,95409.83
2019-01-14T02:47:12.745Z,95413.88
2019-01-14T02:49:44.687Z,95428.38
2019-01-14T02:52:16.565Z,95429.22
2019-01-14T02:54:48.417Z,95434.39
2019-01-14T02:57:20.231Z,95438.31
2019-01-14T02:59:52.052Z,95445.01
2019-01-14T03:02:23.947Z,95444.02
2019-01-14T03:04:55.774Z,95446.62
2019-01-14T03:07:27.599Z,95456.05
2019-01-14T03:09:59.491Z,95457.01
2019-01-14T03:12:31.251Z,95452.98
2019-01-14T03:15:03.061Z,95457.85
2019-01-14T03:17:34.990Z,95458.33
2019-01-14T03:20:09.640Z,95450.86
2019-01-14T03:22:41.865Z,95469.56
2019-01-14T03:25:14.912Z,95466.66
2019-01-14T03:27:46.873Z,95474.27
2019-01-14T03:30:20.240Z,95468.58
2019-01-14T03:32:52.127Z,95471.69
2019-01-14T03:35:23.946Z,95480.43
2019-01-14T03:37:55.779Z,95478.65
2019-01-14T03:40:27.671Z,95481.87
2019-01-14T03:42:59.484Z,95486.17
2019-01-14T03:45:31.408Z,95493.64
2019-01-14T03:48:03.570Z,95497.69
2019-01-14T03:50:35.471Z,95493.44
2019-01-14T03:53:07.272Z,95496.02
2019-01-14T03:55:39.181Z,95501.39
2019-01-14T03:58:11.001Z,95505.16
2019-01-14T04:00:42.894Z,95506.59
2019-01-14T04:03:14.623Z,95504.59
2019-01-14T04:05:46.670Z,95509.68
2019-01-14T04:08:18.557Z,95496.98
2019-01-14T04:10:50.618Z,95499.70
2019-01-14T04:13:22.518Z,95489.66
2019-01-14T04:15:54.338Z,95494.18
2019-01-14T04:18:26.162Z,95516.27
2019-01-14T04:20:58.330Z,95521.34
2019-01-14T04:23:30.515Z,95523.48
2019-01-14T04:26:02.403Z,95537.12
2019-01-14T04:28:34.852Z,95539.23
2019-01-14T04:31:06.674Z,95537.09
2019-01-14T04:33:38.571Z,95540.88
2019-01-14T04:36:10.534Z,95534.37
2019-01-14T04:38:42.737Z,95536.30
2019-01-14T04:41:14.778Z,95536.75
2019-01-14T04:43:46.579Z,95543.05
2019-01-14T04:46:18.396Z,95552.33
2019-01-14T04:48:50.377Z,95554.70
2019-01-14T04:51:22.380Z,95556.59
2019-01-14T04:53:54.198Z,95556.00
2019-01-14T04:56:26.274Z,95555.94
2019-01-14T04:58:58.390Z,95557.58
2019-01-14T05:01:30.791Z,95560.86
2019-01-14T05:04:02.808Z,95559.50
2019-01-14T05:06:34.780Z,95559.13
2019-01-14T05:09:09.403Z,95568.77
2019-01-14T05:11:41.405Z,95580.03
2019-01-14T05:14:13.286Z,95574.97
2019-01-14T05:16:45.223Z,95584.55
2019-01-14T05:19:16.963Z,95578.39
2019-01-14T05:21:48.846Z,95578.36
2019-01-14T05:24:20.578Z,95585.13
2019-01-14T05:26:52.298Z,95586.98
2019-01-14T05:29:24.138Z,95601.45
2019-01-14T05:31:56.562Z,95607.31
2019-01-14T05:34:28.438Z,95621.14
2019-01-14T05:37:00.221Z,95616.48
2019-01-14T05:39:32.055Z,95621.61
2019-01-14T05:42:03.925Z,95630.99
2019-01-14T05:44:36.677Z,95633.59
2019-01-14T05:47:09.659Z,95632.16
2019-01-14T05:49:41.656Z,95637.50
2019-01-14T05:52:13.541Z,95637.63
2019-01-14T05:54:45.352Z,95640.88
2019-01-14T05:57:17.101Z,95644.92
2019-01-14T05:59:49.130Z,95650.39
2019-01-14T06:02:21.025Z,95640.06
2019-01-14T06:04:52.833Z,95635.34
2019-01-14T06:07:24.637Z,95643.84
2019-01-14T06:09:56.365Z,95649.48
2019-01-14T06:12:35.572Z,95655.33
2019-01-14T06:15:08.540Z,95664.22
2019-01-14T06:17:40.413Z,95664.36
2019-01-14T06:20:14.554Z,95670.85
2019-01-14T06:22:46.439Z,95665.47
2019-01-14T06:25:18.682Z,95662.02
2019-01-14T06:27:50.535Z,95675.06
2019-01-14T06:30:25.474Z,95683.12
2019-01-14T06:32:57.299Z,95685.73
2019-01-14T06:35:29.233Z,95686.46
2019-01-14T06:38:01.172Z,95687.50
2019-01-14T06:40:33.037Z,95684.78
2019-01-14T06:43:04.924Z,95682.45
2019-01-14T06:45:36.902Z,95696.40
2019-01-14T06:48:10.011Z,95702.23
2019-01-14T06:50:41.854Z,95705.23
2019-01-14T06:53:13.716Z,95711.47
2019-01-14T06:55:45.730Z,95710.52
2019-01-14T06:58:17.565Z,95724.04
2019-01-14T07:00:49.301Z,95727.48
2019-01-14T07:03:21.188Z,95731.65
2019-01-14T07:05:53.123Z,95742.79
2019-01-14T07:08:24.859Z,95743.82
2019-01-14T07:10:57.009Z,95753.28
2019-01-14T07:13:28.805Z,95740.29
2019-01-14T07:16:00.517Z,95742.45
2019-01-14T07:18:32.254Z,95752.39
2019-01-14T07:21:04.048Z,95753.59
2019-01-14T07:23:35.979Z,95759.48
2019-01-14T07:26:07.973Z,95767.16
2019-01-14T07:28:39.948Z,95770.92
2019-01-14T07:31:11.895Z,95779.38
2019-01-14T07:33:43.906Z,95776.78
2019-01-14T07:36:15.940Z,95779.45
2019-01-14T07:38:48.003Z,95785.61
2019-01-14T07:41:20.000Z,95789.12
2019-01-14T07:43:52.226Z,95793.02
2019-01-14T07:46:25.327Z,95797.87
2019-01-14T07:48:57.091Z,95795.05
2019-01-14T07:51:28.935Z,95803.61
2019-01-14T07:54:00.687Z,95811.88
2019-01-14T07:56:32.776Z,95817.91
2019-01-14T07:59:04.723Z,95822.16
2019-01-14T08:01:36.516Z,95823.51
2019-01-14T08:04:09.475Z,95824.75
2019-01-14T08:06:41.274Z,95831.18
2019-01-14T08:09:13.082Z,95839.10
2019-01-14T08:11:45.147Z,95839.70
2019-01-14T08:14:17.024Z,95834.16
2019-01-14T08:16:48.986Z,95842.30
2019-01-14T08:19:20.710Z,95840.47
2019-01-14T08:21:52.575Z,95845.03
2019-01-14T08:24:24.375Z,95854.00
2019-01-14T08:26:56.179Z,95853.02
2019-01-14T08:29:27.979Z,95852.20
2019-01-14T08:31:59.838Z,95854.25
2019-01-14T08:34:31.636Z,95867.77
2019-01-14T08:37:03.568Z,95865.30
2019-01-14T08:39:35.373Z,95881.61
2019-01-14T08:42:08.113Z,95888.68
2019-01-14T08:44:41.949Z,95892.10
2019-01-14T08:47:13.699Z,95889.79
2019-01-14T08:49:45.865Z,95891.11
2019-01-14T08:52:17.665Z,95892.00
2019-01-14T08:54:49.566Z,95903.74
2019-01-14T08:57:21.790Z,95905.09
2019-01-14T08:59:53.593Z,95905.14
2019-01-14T09:02:25.470Z,95906.98
2019-01-14T09:04:57.296Z,95909.69
2019-01-14T09:07:29.025Z,95912.58
2019-01-14T09:10:00.764Z,95911.76
2019-01-14T09:12:33.627Z,95913.01
2019-01-14T09:15:07.624Z,95911.76
2019-01-14T09:17:39.566Z,95905.62
2019-01-14T09:20:15.708Z,95905.97
2019-01-14T09:22:47.706Z,95909.69
2019-01-14T09:25:19.776Z,95909.86
2019-01-14T09:27:52.808Z,95909.64
2019-01-14T09:30:26.397Z,95909.16
2019-01-14T09:32:58.217Z,95916.43
2019-01-14T09:35:30.270Z,95910.59
2019-01-14T09:38:02.096Z,95910.16
2019-01-14T09:40:34.323Z,95909.23
2019-01-14T09:43:06.197Z,95913.53
2019-01-14T09:45:38.093Z,95908.45
2019-01-14T09:48:10.194Z,95920.09
2019-01-14T09:50:41.930Z,95923.97
2019-01-14T09:53:13.739Z,95925.59
2019-01-14T09:55:45.722Z,95927.06
2019-01-14T09:58:17.452Z,95931.31
2019-01-14T10:00:49.337Z,95925.75
2019-01-14T10:03:21.141Z,95928.57
2019-01-14T10:05:59.072Z,95928.27
2019-01-14T10:08:30.986Z,95921.42
2019-01-14T10:11:03.061Z,95912.64
2019-01-14T10:13:35.054Z,95914.45
2019-01-14T10:16:07.050Z,95907.80
2019-01-14T10:18:38.859Z,95914.06
2019-01-14T10:21:10.904Z,95903.72
2019-01-14T10:23:42.787Z,95904.00
2019-01-14T10:26:16.179Z,95906.64
2019-01-14T10:28:48.084Z,95919.55
2019-01-14T10:31:20.165Z,95923.16
2019-01-14T10:33:52.018Z,95920.76
2019-01-14T10:36:23.755Z,95935.55
2019-01-14T10:38:55.481Z,95925.80
2019-01-14T10:41:27.229Z,95934.56
2019-01-14T10:43:59.037Z,95935.25
2019-01-14T10:46:30.917Z,95936.41
2019-01-14T10:49:06.604Z,95942.38
2019-01-14T10:51:36.314Z,95943.51
2019-01-14T10:54:08.219Z,95942.31
2019-01-14T10:56:44.100Z,95952.13
2019-01-14T10:59:14.459Z,95941.70
2019-01-14T11:01:46.277Z,95946.02
2019-01-14T11:04:18.079Z,95951.58
2019-01-14T11:06:50.224Z,95941.94
2019-01-14T11:09:22.272Z,95941.25
2019-01-14T11:11:54.171Z,95940.93
2019-01-14T11:14:26.964Z,95946.73
2019-01-14T11:16:58.784Z,95940.71
2019-01-14T11:19:30.715Z,95938.97
2019-01-14T11:22:02.523Z,95938.97
2019-01-14T11:24:52.841Z,95941.88
2019-01-14T11:27:24.707Z,95940.88
2019-01-14T11:29:56.520Z,95943.80
2019-01-14T11:32:28.391Z,95942.88
2019-01-14T11:35:02.948Z,95945.38
2019-01-14T11:37:34.797Z,95942.33
2019-01-14T11:40:16.189Z,95943.48
2019-01-14T11:42:49.192Z,95944.20
2019-01-14T11:45:21.193Z,95953.77
2019-01-14T11:47:53.211Z,95959.98
2019-01-14T11:50:25.218Z,95960.00
2019-01-14T11:52:57.260Z,95950.84
2019-01-14T11:55:29.283Z,95954.82
2019-01-14T11:58:01.258Z,95957.77
2019-01-14T12:00:36.803Z,95948.69
2019-01-14T12:03:08.530Z,95956.33
2019-01-14T12:05:40.662Z,95963.66
2019-01-14T12:08:12.563Z,95966.02
2019-01-14T12:10:44.536Z,95966.58
2019-01-14T12:13:16.422Z,95965.03
2019-01-14T12:15:48.231Z,95956.56
2019-01-14T12:18:20.041Z,95961.77
2019-01-14T12:20:51.836Z,95956.09
2019-01-14T12:23:23.724Z,95954.11
2019-01-14T12:25:55.463Z,95957.32
2019-01-14T12:28:27.278Z,95958.39
2019-01-14T12:30:59.158Z,95955.48
2019-01-14T12:33:30.980Z,95966.66
2019-01-14T12:36:02.772Z,95977.08
2019-01-14T12:38:34.532Z,95984.05
2019-01-14T12:41:06.403Z,95991.03
2019-01-14T12:43:38.152Z,95994.31
2019-01-14T12:46:10.402Z,96004.09
2019-01-14T12:48:42.222Z,96008.45
2019-01-14T12:51:14.030Z,96011.42
2019-01-14T12:53:45.782Z,96013.50
2019-01-14T12:56:17.548Z,96011.52
2019-01-14T12:58:49.296Z,96015.52
2019-01-14T13:01:21.121Z,96019.75
2019-01-14T13:03:52.875Z,96019.91
2019-01-14T13:06:24.597Z,96002.45
2019-01-14T13:08:56.419Z,96007.39
2019-01-14T13:11:28.206Z,96011.63
2019-01-14T13:14:00.022Z,96018.94
2019-01-14T13:16:31.841Z,96021.89
2019-01-14T13:19:03.659Z,96020.60
2019-01-14T13:21:35.728Z,96028.02
2019-01-14T13:24:07.566Z,96033.65
2019-01-14T13:26:39.293Z,96046.50
2019-01-14T13:29:15.164Z,96050.84
2019-01-14T13:31:44.652Z,96052.48
2019-01-14T13:34:16.487Z,96049.98
2019-01-14T13:36:48.288Z,96049.17
2019-01-14T13:39:20.025Z,96044.61
2019-01-14T13:41:51.896Z,96050.34
2019-01-14T13:44:23.797Z,96053.42
2019-01-14T13:46:55.791Z,96046.44
2019-01-14T13:49:27.706Z,96060.86
2019-01-14T13:51:59.507Z,96061.52
2019-01-14T13:54:31.659Z,96076.03
2019-01-14T13:57:03.672Z,96085.13
2019-01-14T13:59:35.838Z,96092.30
2019-01-14T14:02:07.730Z,96104.57
2019-01-14T14:04:39.554Z,96111.04
2019-01-14T14:07:11.690Z,96103.50
2019-01-14T14:09:43.527Z,96102.53
2019-01-14T14:12:15.421Z,96107.38
2019-01-14T14:14:47.249Z,96116.08
2019-01-14T14:17:19.081Z,96117.16
2019-01-14T14:19:50.920Z,96125.75
2019-01-14T14:22:22.665Z,96130.22
2019-01-14T14:24:55.467Z,96144.36
2019-01-14T14:27:27.279Z,96138.59
2019-01-14T14:29:59.293Z,96154.28
2019-01-14T14:32:31.344Z,96160.77
2019-01-14T14:35:03.421Z,96176.94
2019-01-14T14:37:35.262Z,96177.77
2019-01-14T14:40:08.898Z,96181.18
2019-01-14T14:42:40.783Z,96197.45
2019-01-14T14:45:12.970Z,96195.66
2019-01-14T14:47:44.908Z,96193.33
2019-01-14T14:50:17.613Z,96200.27
2019-01-14T14:52:49.939Z,96202.13
2019-01-14T14:55:21.777Z,96198.84
2019-01-14T14:57:53.729Z,96193.54
2019-01-14T15:00:26.711Z,96205.19
2019-01-14T15:02:58.756Z,96206.05
2019-01-14T15:05:30.653Z,96207.25
2019-01-14T15:08:02.571Z,96210.16
2019-01-14T15:10:34.393Z,96211.47
2019-01-14T15:13:06.336Z,96217.16
2019-01-14T15:15:38.461Z,96226.11
2019-01-14T15:18:11.258Z,96235.16
2019-01-14T15:20:43.160Z,96239.77
2019-01-14T15:23:14.981Z,96250.61
2019-01-14T15:25:47.095Z,96243.52
2019-01-14T15:28:18.923Z,96246.47
2019-01-14T15:30:50.686Z,96247.30
2019-01-14T15:33:22.561Z,96246.83
2019-01-14T15:35:54.408Z,96254.92
2019-01-14T15:38:26.301Z,96268.83
2019-01-14T15:40:58.148Z,96267.11
2019-01-14T15:43:29.977Z,96281.63
2019-01-14T15:46:01.922Z,96286.34
2019-01-14T15:48:33.767Z,96289.41
2019-01-14T15:51:05.681Z,96297.77
2019-01-14T15:53:37.437Z,96290.09
2019-01-14T15:56:09.889Z,96301.30
2019-01-14T15:58:41.798Z,96300.86
2019-01-14T16:01:13.645Z,96308.51
2019-01-14T16:03:45.466Z,96311.31
2019-01-14T16:06:17.279Z,96326.87
2019-01-14T16:08:49.267Z,96329.97
2019-01-14T16:11:21.678Z,96338.44
2019-01-14T16:13:53.491Z,96337.97
2019-01-14T16:16:25.743Z,96344.46
2019-01-14T16:18:57.938Z,96349.29
2019-01-14T16:21:29.760Z,96344.60
2019-01-14T16:24:01.709Z,96365.47
2019-01-14T16:26:33.582Z,96373.61
2019-01-14T16:29:05.418Z,96373.80
2019-01-14T16:31:37.185Z,96362.98
2019-01-14T16:34:09.341Z,96365.82
2019-01-14T16:36:41.251Z,96384.67
2019-01-14T16:39:13.055Z,96384.53
2019-01-14T16:41:44.892Z,96380.92
2019-01-14T16:44:16.700Z,96383.52
2019-01-14T16:46:48.588Z,96392.92
2019-01-14T16:49:20.481Z,96390.78
2019-01-14T16:51:52.639Z,96392.59
2019-01-14T16:54:24.387Z,96395.52
2019-01-14T16:56:56.145Z,96401.61
2019-01-14T16:59:27.963Z,96406.34
2019-01-14T17:02:00.033Z,96401.16
2019-01-14T17:04:31.858Z,96398.35
2019-01-14T17:07:03.962Z,96402.34
2019-01-14T17:09:35.832Z,96407.52
2019-01-14T17:12:08.104Z,96399.94
2019-01-14T17:14:39.938Z,96399.80
2019-01-14T17:17:11.771Z,96410.87
2019-01-14T17:19:43.575Z,96411.97
2019-01-14T17:22:15.526Z,96415.75
2019-01-14T17:24:47.252Z,96423.05
2019-01-14T17:27:19.326Z,96420.48
2019-01-14T17:29:51.183Z,96430.23
2019-01-14T17:32:23.087Z,96426.09
2019-01-14T17:34:54.900Z,96434.12
2019-01-14T17:37:26.649Z,96433.76
2019-01-14T17:39:58.388Z,96446.97
2019-01-14T17:42:30.356Z,96450.41
2019-01-14T17:45:02.097Z,96456.61
2019-01-14T17:47:33.925Z,96456.30
2019-01-14T17:50:08.561Z,96461.81
2019-01-14T17:52:40.382Z,96473.55
2019-01-14T17:55:12.276Z,96471.31
2019-01-14T17:57:44.189Z,96484.30
2019-01-14T18:00:23.095Z,96485.73
2019-01-14T18:02:55.065Z,96492.23
2019-01-14T18:05:26.967Z,96503.28
2019-01-14T18:07:58.792Z,96507.80
2019-01-14T18:10:30.562Z,96514.12
2019-01-14T18:13:02.370Z,96513.30
2019-01-14T18:15:34.280Z,96524.87
2019-01-14T18:18:06.206Z,96514.83
2019-01-14T18:20:37.932Z,96515.83
2019-01-14T18:23:09.748Z,96525.41
2019-01-14T18:25:41.497Z,96520.22
2019-01-14T18:28:13.376Z,96521.67
2019-01-14T18:30:45.241Z,96521.00
2019-01-14T18:33:16.995Z,96530.07
2019-01-14T18:35:48.843Z,96523.82
2019-01-14T18:38:20.628Z,96531.83
2019-01-14T18:40:52.644Z,96540.31
2019-01-14T18:43:25.359Z,96549.49
2019-01-14T18:45:57.200Z,96552.71
2019-01-14T18:48:29.031Z,96560.20
2019-01-14T18:51:00.855Z,96571.80
2019-01-14T18:53:32.617Z,96564.22
2019-01-14T18:56:04.527Z,96570.14
2019-01-14T18:58:36.275Z,96573.30
2019-01-14T19:01:08.075Z,96583.91
2019-01-14T19:03:40.048Z,96591.68
2019-01-14T19:06:11.768Z,96595.34
2019-01-14T19:08:43.699Z,96607.80
2019-01-14T19:11:15.502Z,96599.92
2019-01-14T19:13:47.258Z,96616.31
2019-01-14T19:16:19.065Z,96620.23
2019-01-14T19:18:51.430Z,96626.32
2019-01-14T19:21:23.428Z,96632.09
2019-01-14T19:23:55.156Z,96630.41
2019-01-14T19:26:27.047Z,96641.01
2019-01-14T19:28:58.809Z,96648.05
2019-01-14T19:31:30.705Z,96642.50
2019-01-14T19:34:02.693Z,96647.55
2019-01-14T19:36:34.724Z,96654.76
2019-01-14T19:39:09.421Z,96665.60
2019-01-14T19:41:41.514Z,96666.48
2019-01-14T19:44:13.339Z,96667.03
2019-01-14T19:46:45.074Z,96677.92
2019-01-14T19:49:17.705Z,96678.04
2019-01-14T19:51:49.733Z,96681.70
2019-01-14T19:54:21.635Z,96684.20
2019-01-14T19:56:53.378Z,96693.05
2019-01-14T19:59:25.266Z,96698.66
2019-01-14T20:01:57.084Z,96704.35
2019-01-14T20:04:29.158Z,96705.09
2019-01-14T20:07:00.905Z,96712.81
2019-01-14T20:09:32.801Z,96723.66
2019-01-14T20:12:04.685Z,96726.25
2019-01-14T20:14:36.449Z,96722.92
2019-01-14T20:17:08.445Z,96727.77
2019-01-14T20:19:40.201Z,96725.83
2019-01-14T20:22:12.119Z,96730.91
2019-01-14T20:24:43.957Z,96730.41
2019-01-14T20:27:15.793Z,96728.52
2019-01-14T20:29:47.626Z,96722.55
2019-01-14T20:32:19.468Z,96736.19
2019-01-14T20:34:51.289Z,96733.97
2019-01-14T20:37:23.019Z,96727.58
2019-01-14T20:39:54.772Z,96736.88
2019-01-14T20:42:26.542Z,96745.30
2019-01-14T20:44:58.453Z,96742.70
2019-01-14T20:47:30.446Z,96741.26
2019-01-14T20:50:02.599Z,96744.03
2019-01-14T20:52:37.026Z,96743.20
2019-01-14T20:55:09.960Z,96744.41
2019-01-14T20:57:41.771Z,96748.42
2019-01-14T21:00:18.876Z,96749.62
2019-01-14T21:02:50.765Z,96745.18
2019-01-14T21:05:24.958Z,96748.17
2019-01-14T21:07:56.858Z,96751.88
2019-01-14T21:13:07.821Z,96759.00
2019-01-14T21:15:39.985Z,96765.38
2019-01-14T21:18:11.806Z,96770.19
2019-01-14T21:20:44.123Z,96768.16
2019-01-14T21:23:15.970Z,96771.15
2019-01-14T21:25:47.876Z,96766.08
2019-01-14T21:28:19.692Z,96770.53
2019-01-14T21:30:51.880Z,96778.45
2019-01-14T21:33:23.920Z,96776.63
2019-01-14T21:35:55.958Z,96778.73
2019-01-14T21:38:27.705Z,96785.23
2019-01-14T21:41:00.419Z,96783.17
2019-01-14T21:43:32.254Z,96787.98
2019-01-14T21:46:04.381Z,96787.64
2019-01-14T21:48:37.473Z,96789.09
2019-01-14T21:51:09.404Z,96788.27
2019-01-14T21:53:41.133Z,96795.38
2019-01-14T21:56:12.898Z,96804.05
2019-01-14T21:58:45.604Z,96802.05
2019-01-14T22:01:17.422Z,96806.48
2019-01-14T22:03:49.455Z,96810.55
2019-01-14T22:06:21.264Z,96817.80
2019-01-14T22:08:52.993Z,96824.66
2019-01-14T22:11:24.917Z,96822.83
2019-01-14T22:13:56.910Z,96828.61
2019-01-14T22:16:28.953Z,96827.53
2019-01-14T22:19:00.831Z,96828.83
2019-01-14T22:21:32.586Z,96831.34
2019-01-14T22:24:04.406Z,96835.69
2019-01-14T22:26:36.164Z,96841.51
2019-01-14T22:29:08.226Z,96830.24
2019-01-14T22:31:40.225Z,96827.66
2019-01-14T22:34:12.044Z,96818.30
2019-01-14T22:36:44.040Z,96820.27
2019-01-14T22:39:15.849Z,96817.20
2019-01-14T22:41:47.730Z,96821.56
2019-01-14T22:44:19.554Z,96819.33
2019-01-14T22:46:51.607Z,96819.14
2019-01-14T22:49:23.339Z,96830.25
2019-01-14T22:51:55.166Z,96836.92
2019-01-14T22:54:26.933Z,96839.39
2019-01-14T22:56:58.719Z,96841.34
2019-01-14T22:59:30.483Z,96844.77
2019-01-14T23:02:02.377Z,96847.81
2019-01-14T23:04:34.447Z,96841.43
2019-01-14T23:07:06.337Z,96837.55
2019-01-14T23:09:38.134Z,96842.81
2019-01-14T23:12:10.276Z,96846.77
2019-01-14T23:14:42.099Z,96845.16
2019-01-14T23:17:13.910Z,96845.31
2019-01-14T23:19:45.770Z,96848.36
2019-01-14T23:22:17.655Z,96847.37
2019-01-14T23:24:50.523Z,96846.91
2019-01-14T23:27:22.384Z,96851.78
2019-01-14T23:29:54.111Z,96851.34
2019-01-14T23:32:26.176Z,96857.42
2019-01-14T23:34:57.989Z,96860.61
2019-01-14T23:37:29.888Z,96862.06
2019-01-14T23:40:01.632Z,96862.82
2019-01-14T23:42:33.622Z,96867.99
2019-01-14T23:45:05.993Z,96872.34
2019-01-14T23:47:37.893Z,96874.56
2019-01-14T23:50:10.518Z,96878.34
2019-01-14T23:52:42.257Z,96881.40
2019-01-14T23:55:14.070Z,96879.15
2019-01-14T23:57:45.831Z,96886.28
